createdAt,value
2019-04-20T00:01:01.444Z,100769.48
2019-04-20T00:03:37.995Z,100765.91
2019-04-20T00:06:04.924Z,100765.64
2019-04-20T00:08:39.079Z,100764.80
2019-04-20T00:11:17.267Z,100760.39
2019-04-20T00:13:51.787Z,100760.46
2019-04-20T00:16:14.672Z,100760.69
2019-04-20T00:18:51.423Z,100758.89
2019-04-20T00:21:43.109Z,100762.67
2019-04-20T00:24:21.106Z,100759.26
2019-04-20T00:27:20.250Z,100754.34
2019-04-20T00:29:36.730Z,100751.06
2019-04-20T00:32:05.397Z,100750.45
2019-04-20T00:34:29.880Z,100748.47
2019-04-20T00:36:56.396Z,100751.97
2019-04-20T00:39:27.869Z,100749.31
2019-04-20T00:42:05.593Z,100745.31
2019-04-20T00:44:36.222Z,100741.63
2019-04-20T00:47:15.814Z,100738.58
2019-04-20T00:49:48.625Z,100737.66
2019-04-20T00:52:29.073Z,100735.17
2019-04-20T00:54:41.204Z,100733.74
2019-04-20T00:57:22.260Z,100739.19
2019-04-20T01:00:07.581Z,100740.75
2019-04-20T01:02:29.915Z,100737.86
2019-04-20T01:05:05.091Z,100736.64
2019-04-20T01:07:39.421Z,100736.73
2019-04-20T01:10:11.138Z,100737.48
2019-04-20T01:12:43.864Z,100731.04
2019-04-20T01:15:24.371Z,100735.52
2019-04-20T01:17:47.828Z,100731.16
2019-04-20T01:20:18.809Z,100730.73
2019-04-20T01:22:54.645Z,100729.58
2019-04-20T01:25:28.320Z,100728.20
2019-04-20T01:28:07.779Z,100726.73
2019-04-20T01:30:35.003Z,100722.61
2019-04-20T01:33:16.225Z,100722.81
2019-04-20T01:35:51.602Z,100723.14
2019-04-20T01:38:22.394Z,100722.34
2019-04-20T01:40:38.196Z,100715.99
2019-04-20T01:43:10.041Z,100720.07
2019-04-20T01:45:43.234Z,100721.52
2019-04-20T01:48:20.235Z,100719.13
2019-04-20T01:50:54.910Z,100715.72
2019-04-20T01:53:41.432Z,100711.99
2019-04-20T01:56:13.741Z,100715.11
2019-04-20T01:59:08.596Z,100705.94
2019-04-20T02:01:33.662Z,100710.05
2019-04-20T02:04:16.956Z,100704.34
2019-04-20T02:06:47.202Z,100711.84
2019-04-20T02:09:18.474Z,100711.69
2019-04-20T02:11:49.754Z,100710.59
2019-04-20T02:14:24.966Z,100712.69
2019-04-20T02:16:58.436Z,100718.76
2019-04-20T02:19:34.790Z,100716.48
2019-04-20T02:22:07.646Z,100709.02
2019-04-20T02:24:27.933Z,100713.56
2019-04-20T02:26:59.845Z,100717.80
2019-04-20T02:29:50.979Z,100724.78
2019-04-20T02:32:36.542Z,100720.30
2019-04-20T02:38:12.553Z,100718.09
2019-04-20T02:40:47.535Z,100721.96
2019-04-20T02:43:11.923Z,100724.27
2019-04-20T02:45:40.365Z,100721.16
2019-04-20T02:48:07.726Z,100730.33
2019-04-20T02:50:44.328Z,100724.17
2019-04-20T02:53:21.976Z,100727.20
2019-04-20T02:58:28.242Z,100729.11
2019-04-20T03:00:44.454Z,100723.46
2019-04-20T03:03:10.199Z,100723.20
2019-04-20T03:05:39.464Z,100724.19
2019-04-20T03:08:19.756Z,100714.00
2019-04-20T03:11:00.753Z,100715.34
2019-04-20T03:13:26.964Z,100715.72
2019-04-20T03:16:00.121Z,100715.81
2019-04-20T03:18:34.022Z,100722.48
2019-04-20T03:21:07.988Z,100721.82
2019-04-20T03:23:42.565Z,100717.51
2019-04-20T03:26:12.757Z,100717.50
2019-04-20T03:28:53.861Z,100715.31
2019-04-20T03:32:15.066Z,100715.54
2019-04-20T03:36:59.210Z,100717.45
2019-04-20T03:39:28.394Z,100711.11
2019-04-20T03:41:46.981Z,100719.66
2019-04-20T03:44:18.234Z,100717.05
2019-04-20T03:46:55.002Z,100718.52
2019-04-20T03:49:42.408Z,100721.00
2019-04-20T03:52:28.714Z,100719.67
2019-04-20T03:55:21.084Z,100726.58
2019-04-20T03:58:02.917Z,100728.48
2019-04-20T04:00:42.544Z,100725.19
2019-04-20T04:03:39.167Z,100731.66
2019-04-20T04:05:55.539Z,100728.08
2019-04-20T04:08:26.611Z,100729.78
2019-04-20T04:11:10.862Z,100731.32
2019-04-20T04:13:23.052Z,100732.48
2019-04-20T04:15:59.243Z,100739.98
2019-04-20T04:18:34.069Z,100742.37
2019-04-20T04:21:06.338Z,100749.28
2019-04-20T04:23:49.006Z,100747.99
2019-04-20T04:26:22.280Z,100742.73
2019-04-20T04:28:54.767Z,100752.28
2019-04-20T04:31:25.962Z,100746.42
2019-04-20T04:34:12.588Z,100747.86
2019-04-20T04:36:30.728Z,100744.34
2019-04-20T04:39:11.460Z,100745.41
2019-04-20T04:41:36.255Z,100754.20
2019-04-20T04:44:09.650Z,100753.20
2019-04-20T04:46:25.076Z,100750.62
2019-04-20T04:49:05.345Z,100759.66
2019-04-20T04:51:40.317Z,100754.73
2019-04-20T04:54:12.928Z,100760.61
2019-04-20T04:56:33.782Z,100763.03
2019-04-20T04:59:04.589Z,100760.50
2019-04-20T05:01:37.289Z,100758.33
2019-04-20T05:04:25.051Z,100755.34
2019-04-20T05:06:54.726Z,100765.02
2019-04-20T05:09:15.450Z,100763.14
2019-04-20T05:11:45.105Z,100764.75
2019-04-20T05:14:23.581Z,100766.37
2019-04-20T05:17:04.572Z,100766.46
2019-04-20T05:19:46.135Z,100768.45
2019-04-20T05:22:19.404Z,100769.96
2019-04-20T05:25:00.552Z,100775.72
2019-04-20T05:27:46.588Z,100770.64
2019-04-20T05:30:01.132Z,100775.23
2019-04-20T05:32:44.059Z,100770.94
2019-04-20T05:35:29.536Z,100773.10
2019-04-20T05:38:11.496Z,100766.48
2019-04-20T05:40:35.435Z,100771.10
2019-04-20T05:43:20.652Z,100765.70
2019-04-20T05:45:50.209Z,100775.04
2019-04-20T05:48:27.300Z,100773.69
2019-04-20T05:50:57.497Z,100761.64
2019-04-20T05:53:40.531Z,100768.77
2019-04-20T05:56:02.865Z,100764.01
2019-04-20T05:58:41.246Z,100768.42
2019-04-20T06:01:13.558Z,100773.06
2019-04-20T06:03:42.332Z,100768.77
2019-04-20T06:06:16.836Z,100768.94
2019-04-20T06:08:53.815Z,100770.16
2019-04-20T06:11:28.276Z,100768.69
2019-04-20T06:14:02.619Z,100775.38
2019-04-20T06:16:55.778Z,100783.57
2019-04-20T06:19:42.225Z,100777.85
2019-04-20T06:22:14.680Z,100782.13
2019-04-20T06:24:57.290Z,100785.65
2019-04-20T06:27:14.565Z,100785.02
2019-04-20T06:29:45.743Z,100792.97
2019-04-20T06:32:28.877Z,100796.47
2019-04-20T06:34:57.090Z,100802.27
2019-04-20T06:37:25.781Z,100801.80
2019-04-20T06:40:13.587Z,100805.85
2019-04-20T06:42:28.991Z,100793.13
2019-04-20T06:45:04.254Z,100787.42
2019-04-20T06:47:39.292Z,100793.25
2019-04-20T06:50:08.647Z,100793.57
2019-04-20T06:53:01.574Z,100795.63
2019-04-20T06:55:38.617Z,100794.18
2019-04-20T06:58:22.170Z,100799.66
2019-04-20T07:00:38.362Z,100797.38
2019-04-20T07:03:26.217Z,100804.09
2019-04-20T07:05:41.773Z,100804.89
2019-04-20T07:08:35.075Z,100798.01
2019-04-20T07:10:51.949Z,100799.00
2019-04-20T07:13:12.884Z,100796.19
2019-04-20T07:15:54.194Z,100785.28
2019-04-20T07:18:36.839Z,100790.30
2019-04-20T07:21:27.277Z,100786.97
2019-04-20T07:23:54.523Z,100782.56
2019-04-20T07:26:24.368Z,100781.96
2019-04-20T07:28:58.982Z,100778.20
2019-04-20T07:31:27.735Z,100784.56
2019-04-20T07:33:58.128Z,100792.42
2019-04-20T07:36:32.239Z,100788.37
2019-04-20T07:39:07.899Z,100787.86
2019-04-20T07:41:43.012Z,100785.75
2019-04-20T07:44:11.879Z,100783.94
2019-04-20T07:46:55.122Z,100782.17
2019-04-20T07:49:12.858Z,100780.38
2019-04-20T07:51:31.551Z,100783.51
2019-04-20T07:54:27.042Z,100786.52
2019-04-20T07:56:50.709Z,100794.11
2019-04-20T07:59:14.288Z,100787.86
2019-04-20T08:02:16.855Z,100790.69
2019-04-20T08:04:47.591Z,100789.76
2019-04-20T08:07:07.380Z,100793.48
2019-04-20T08:09:44.168Z,100780.18
2019-04-20T08:12:48.003Z,100779.03
2019-04-20T08:15:27.328Z,100772.70
2019-04-20T08:17:51.018Z,100772.03
2019-04-20T08:20:18.877Z,100765.50
2019-04-20T08:22:53.059Z,100769.02
2019-04-20T08:25:16.686Z,100773.88
2019-04-20T08:27:55.129Z,100774.32
2019-04-20T08:30:56.085Z,100779.16
2019-04-20T08:33:24.527Z,100784.86
2019-04-20T08:36:04.976Z,100787.04
2019-04-20T08:39:01.333Z,100775.97
2019-04-20T08:41:12.032Z,100774.41
2019-04-20T08:46:23.460Z,100768.13
2019-04-20T08:48:53.623Z,100764.67
2019-04-20T08:51:25.900Z,100764.11
2019-04-20T08:53:59.378Z,100754.94
2019-04-20T08:56:19.332Z,100759.95
2019-04-20T08:58:41.581Z,100768.46
2019-04-20T09:01:20.083Z,100762.69
2019-04-20T09:03:56.448Z,100760.64
2019-04-20T09:06:33.670Z,100762.55
2019-04-20T09:09:07.632Z,100759.80
2019-04-20T09:11:47.967Z,100765.89
2019-04-20T09:14:16.257Z,100757.28
2019-04-20T09:16:55.643Z,100755.09
2019-04-20T09:19:32.486Z,100752.08
2019-04-20T09:22:24.416Z,100750.98
2019-04-20T09:25:13.405Z,100763.38
2019-04-20T09:27:28.971Z,100760.30
2019-04-20T09:30:06.212Z,100754.68
2019-04-20T09:32:40.292Z,100750.08
2019-04-20T09:35:20.980Z,100741.66
2019-04-20T09:38:03.250Z,100741.27
2019-04-20T09:40:35.313Z,100732.09
2019-04-20T09:43:08.808Z,100735.06
2019-04-20T09:45:49.026Z,100727.44
2019-04-20T09:48:25.355Z,100722.75
2019-04-20T09:51:12.711Z,100726.34
2019-04-20T09:53:37.085Z,100726.77
2019-04-20T09:56:14.566Z,100718.91
2019-04-20T09:58:45.147Z,100724.25
2019-04-20T10:01:13.643Z,100721.33
2019-04-20T10:03:31.838Z,100723.47
2019-04-20T10:06:03.423Z,100710.23
2019-04-20T10:08:43.578Z,100719.63
2019-04-20T10:11:07.628Z,100712.89
2019-04-20T10:13:38.514Z,100719.20
2019-04-20T10:16:09.159Z,100709.02
2019-04-20T10:18:45.546Z,100712.95
2019-04-20T10:21:13.662Z,100716.05
2019-04-20T10:23:44.890Z,100703.88
2019-04-20T10:26:16.454Z,100695.02
2019-04-20T10:28:47.732Z,100700.24
2019-04-20T10:31:18.538Z,100702.47
2019-04-20T10:33:49.390Z,100695.04
2019-04-20T10:36:39.587Z,100690.63
2019-04-20T10:39:11.268Z,100703.44
2019-04-20T10:41:48.927Z,100693.51
2019-04-20T10:44:14.709Z,100702.09
2019-04-20T10:46:46.939Z,100695.42
2019-04-20T10:49:17.796Z,100692.75
2019-04-20T10:51:49.568Z,100690.34
2019-04-20T10:54:20.485Z,100681.20
2019-04-20T10:56:51.842Z,100684.84
2019-04-20T10:59:25.819Z,100690.61
2019-04-20T11:01:58.107Z,100679.14
2019-04-20T11:04:28.779Z,100681.53
2019-04-20T11:07:00.734Z,100683.85
2019-04-20T11:09:32.476Z,100686.24
2019-04-20T11:12:04.223Z,100683.64
2019-04-20T11:14:38.742Z,100675.55
2019-04-20T11:17:08.696Z,100677.20
2019-04-20T11:19:39.582Z,100672.96
2019-04-20T11:22:10.637Z,100671.14
2019-04-20T11:24:41.321Z,100669.69
2019-04-20T11:27:12.180Z,100669.12
2019-04-20T11:29:44.320Z,100669.79
2019-04-20T11:32:15.910Z,100673.84
2019-04-20T11:34:47.128Z,100662.03
2019-04-20T11:37:19.291Z,100663.14
2019-04-20T11:39:50.814Z,100663.44
2019-04-20T11:42:21.808Z,100658.48
2019-04-20T11:44:52.920Z,100662.66
2019-04-20T11:47:25.041Z,100658.07
2019-04-20T11:49:55.969Z,100654.50
2019-04-20T11:52:28.119Z,100648.29
2019-04-20T11:55:00.285Z,100649.58
2019-04-20T11:57:31.283Z,100644.17
2019-04-20T12:00:03.569Z,100643.59
2019-04-20T12:02:54.670Z,100641.30
2019-04-20T12:05:35.181Z,100634.94
2019-04-20T12:08:07.071Z,100633.22
2019-04-20T12:10:39.082Z,100620.52
2019-04-20T12:13:12.968Z,100627.66
2019-04-20T12:15:43.452Z,100626.11
2019-04-20T12:18:15.740Z,100619.56
2019-04-20T12:20:47.093Z,100623.36
2019-04-20T12:23:18.085Z,100620.80
2019-04-20T12:25:50.090Z,100619.07
2019-04-20T12:28:21.938Z,100617.77
2019-04-20T12:30:55.950Z,100618.09
2019-04-20T12:33:26.417Z,100610.16
2019-04-20T12:35:58.369Z,100609.63
2019-04-20T12:38:30.749Z,100603.92
2019-04-20T12:41:04.880Z,100599.89
2019-04-20T12:43:34.235Z,100604.79
2019-04-20T12:46:05.510Z,100601.53
2019-04-20T12:48:37.631Z,100597.02
2019-04-20T12:51:09.551Z,100589.84
2019-04-20T12:53:40.599Z,100592.66
2019-04-20T12:56:12.658Z,100586.21
2019-04-20T12:58:43.690Z,100594.55
2019-04-20T13:01:16.080Z,100583.39
2019-04-20T13:03:47.682Z,100579.30
2019-04-20T13:06:19.592Z,100582.64
2019-04-20T13:08:53.797Z,100574.39
2019-04-20T13:11:43.608Z,100573.25
2019-04-20T13:14:50.589Z,100582.01
2019-04-20T13:17:22.128Z,100569.02
2019-04-20T13:19:53.337Z,100574.22
2019-04-20T13:22:25.342Z,100573.83
2019-04-20T13:24:57.033Z,100568.70
2019-04-20T13:27:29.107Z,100569.36
2019-04-20T13:30:00.855Z,100565.37
2019-04-20T13:32:31.916Z,100562.91
2019-04-20T13:35:04.426Z,100560.02
2019-04-20T13:37:38.066Z,100553.80
2019-04-20T13:40:09.046Z,100545.79
2019-04-20T13:42:39.785Z,100553.18
2019-04-20T13:45:12.827Z,100540.50
2019-04-20T13:47:45.183Z,100536.69
2019-04-20T13:50:17.909Z,100536.48
2019-04-20T13:52:49.336Z,100532.28
2019-04-20T13:55:23.434Z,100531.94
2019-04-20T13:58:00.072Z,100526.62
2019-04-20T14:00:54.079Z,100528.87
2019-04-20T14:03:25.135Z,100519.20
2019-04-20T14:05:56.473Z,100520.66
2019-04-20T14:08:29.550Z,100518.20
2019-04-20T14:11:00.381Z,100508.58
2019-04-20T14:13:38.953Z,100513.55
2019-04-20T14:16:04.994Z,100505.71
2019-04-20T14:18:35.942Z,100502.73
2019-04-20T14:21:08.305Z,100507.73
2019-04-20T14:23:39.344Z,100496.12
2019-04-20T14:26:10.104Z,100495.09
2019-04-20T14:28:40.935Z,100497.00
2019-04-20T14:31:12.041Z,100494.59
2019-04-20T14:33:43.023Z,100497.27
2019-04-20T14:36:14.909Z,100488.32
2019-04-20T14:38:48.183Z,100493.64
2019-04-20T14:41:20.160Z,100484.80
2019-04-20T14:43:51.275Z,100490.48
2019-04-20T14:46:23.003Z,100493.83
2019-04-20T14:48:54.606Z,100479.66
2019-04-20T14:51:25.829Z,100477.94
2019-04-20T14:53:56.598Z,100481.03
2019-04-20T14:56:27.456Z,100479.06
2019-04-20T14:59:07.751Z,100484.13
2019-04-20T15:01:42.698Z,100484.53
2019-04-20T15:04:18.068Z,100478.72
2019-04-20T15:06:46.590Z,100482.34
2019-04-20T15:09:18.792Z,100476.92
2019-04-20T15:11:50.640Z,100481.27
2019-04-20T15:14:22.691Z,100473.59
2019-04-20T15:16:53.707Z,100464.99
2019-04-20T15:19:36.350Z,100466.83
2019-04-20T15:22:27.328Z,100465.10
2019-04-20T15:24:58.096Z,100456.66
2019-04-20T15:27:28.712Z,100460.33
2019-04-20T15:30:00.302Z,100456.94
2019-04-20T15:32:31.410Z,100455.89
2019-04-20T15:35:03.053Z,100458.17
2019-04-20T15:37:35.091Z,100456.86
2019-04-20T15:40:06.841Z,100455.91
2019-04-20T15:42:49.621Z,100453.35
2019-04-20T15:45:11.436Z,100451.25
2019-04-20T15:47:43.677Z,100448.78
2019-04-20T15:50:15.871Z,100453.15
2019-04-20T15:52:52.215Z,100453.96
2019-04-20T15:55:26.507Z,100446.84
2019-04-20T15:57:51.557Z,100455.05
2019-04-20T16:00:22.926Z,100453.39
2019-04-20T16:02:59.125Z,100449.07
2019-04-20T16:05:49.454Z,100442.84
2019-04-20T16:08:32.432Z,100443.81
2019-04-20T16:11:04.876Z,100435.49
2019-04-20T16:13:40.041Z,100436.12
2019-04-20T16:16:09.948Z,100437.93
2019-04-20T16:18:41.255Z,100434.93
2019-04-20T16:21:19.576Z,100428.06
2019-04-20T16:24:04.466Z,100428.48
2019-04-20T16:26:55.611Z,100429.56
2019-04-20T16:29:26.524Z,100445.08
2019-04-20T16:31:58.330Z,100444.89
2019-04-20T16:34:29.644Z,100437.39
2019-04-20T16:37:00.435Z,100437.19
2019-04-20T16:39:32.293Z,100443.13
2019-04-20T16:42:04.445Z,100435.38
2019-04-20T16:44:35.565Z,100433.66
2019-04-20T16:47:06.408Z,100435.73
2019-04-20T16:49:37.167Z,100431.73
2019-04-20T16:52:07.792Z,100424.85
2019-04-20T16:54:39.695Z,100419.13
2019-04-20T16:57:12.501Z,100432.91
2019-04-20T16:59:48.169Z,100426.26
2019-04-20T17:02:17.475Z,100428.20
2019-04-20T17:04:50.348Z,100424.53
2019-04-20T17:07:40.151Z,100429.12
2019-04-20T17:10:13.793Z,100423.71
2019-04-20T17:12:46.024Z,100429.52
2019-04-20T17:15:19.259Z,100413.22
2019-04-20T17:17:51.552Z,100418.91
2019-04-20T17:20:25.206Z,100412.27
2019-04-20T17:22:56.225Z,100413.83
2019-04-20T17:25:28.056Z,100410.84
2019-04-20T17:28:18.767Z,100409.89
2019-04-20T17:31:09.154Z,100416.17
2019-04-20T17:33:58.481Z,100417.06
2019-04-20T17:36:24.953Z,100418.31
2019-04-20T17:38:55.977Z,100422.03
2019-04-20T17:41:44.503Z,100420.98
2019-04-20T17:44:20.813Z,100416.64
2019-04-20T17:46:46.703Z,100422.50
2019-04-20T17:49:20.403Z,100412.45
2019-04-20T17:51:59.141Z,100417.33
2019-04-20T17:54:29.365Z,100416.96
2019-04-20T17:57:00.602Z,100422.41
2019-04-20T17:59:32.397Z,100415.61
2019-04-20T18:02:42.930Z,100416.52
2019-04-20T18:05:22.900Z,100415.98
2019-04-20T18:07:52.312Z,100422.59
2019-04-20T18:10:26.145Z,100416.52
2019-04-20T18:12:44.613Z,100415.60
2019-04-20T18:15:34.864Z,100417.65
2019-04-20T18:18:18.711Z,100414.59
2019-04-20T18:20:56.882Z,100419.63
2019-04-20T18:23:34.371Z,100421.46
2019-04-20T18:26:25.928Z,100420.76
2019-04-20T18:29:00.011Z,100419.45
2019-04-20T18:31:24.151Z,100424.58
2019-04-20T18:34:00.764Z,100423.59
2019-04-20T18:36:37.644Z,100425.73
2019-04-20T18:39:09.737Z,100422.73
2019-04-20T18:41:44.709Z,100427.30
2019-04-20T18:44:10.790Z,100432.31
2019-04-20T18:47:09.483Z,100424.72
2019-04-20T18:49:27.214Z,100418.64
2019-04-20T18:51:48.003Z,100426.80
2019-04-20T18:54:22.034Z,100425.41
2019-04-20T18:56:53.345Z,100422.46
2019-04-20T18:59:31.886Z,100421.16
2019-04-20T19:01:57.115Z,100421.50
2019-04-20T19:04:30.020Z,100424.74
2019-04-20T19:07:01.640Z,100428.52
2019-04-20T19:09:34.253Z,100424.74
2019-04-20T19:12:08.105Z,100424.23
2019-04-20T19:14:51.380Z,100426.83
2019-04-20T19:17:58.148Z,100431.45
2019-04-20T19:20:23.716Z,100424.65
2019-04-20T19:22:55.690Z,100414.45
2019-04-20T19:25:31.642Z,100408.51
2019-04-20T19:28:04.722Z,100412.16
2019-04-20T19:30:47.073Z,100414.66
2019-04-20T19:33:27.770Z,100409.56
2019-04-20T19:35:56.357Z,100406.16
2019-04-20T19:38:24.130Z,100410.23
2019-04-20T19:41:01.706Z,100405.53
2019-04-20T19:43:33.720Z,100398.51
2019-04-20T19:48:43.578Z,100390.59
2019-04-20T19:51:31.008Z,100388.88
2019-04-20T19:54:04.427Z,100389.92
2019-04-20T19:56:28.220Z,100391.40
2019-04-20T19:58:59.513Z,100393.55
2019-04-20T20:01:15.733Z,100383.64
2019-04-20T20:03:48.331Z,100384.31
2019-04-20T20:06:29.362Z,100380.50
2019-04-20T20:08:57.393Z,100381.45
2019-04-20T20:11:30.388Z,100390.77
2019-04-20T20:13:58.607Z,100387.91
2019-04-20T20:16:50.639Z,100389.91
2019-04-20T20:19:12.148Z,100395.30
2019-04-20T20:21:54.526Z,100393.63
2019-04-20T20:24:11.296Z,100398.33
2019-04-20T20:26:48.371Z,100395.58
2019-04-20T20:29:23.138Z,100397.67
2019-04-20T20:31:58.171Z,100399.49
2019-04-20T20:34:26.735Z,100398.70
2019-04-20T20:36:56.004Z,100395.56
2019-04-20T20:39:29.543Z,100396.67
2019-04-20T20:42:10.114Z,100391.91
2019-04-20T20:44:41.162Z,100395.03
2019-04-20T20:47:30.057Z,100388.09
2019-04-20T20:49:56.815Z,100389.39
2019-04-20T20:52:21.900Z,100389.33
2019-04-20T20:54:49.830Z,100392.05
2019-04-20T20:57:18.659Z,100389.15
2019-04-20T20:59:54.839Z,100390.19
2019-04-20T21:02:23.662Z,100392.23
2019-04-20T21:04:48.320Z,100391.55
2019-04-20T21:07:20.505Z,100388.72
2019-04-20T21:09:52.436Z,100385.20
2019-04-20T21:12:24.880Z,100378.27
2019-04-20T21:15:00.336Z,100385.48
2019-04-20T21:17:39.364Z,100378.98
2019-04-20T21:20:19.125Z,100373.28
2019-04-20T21:22:57.486Z,100369.44
2019-04-20T21:25:17.014Z,100375.74
2019-04-20T21:27:48.716Z,100375.18
2019-04-20T21:30:30.848Z,100368.64
2019-04-20T21:32:57.292Z,100377.77
2019-04-20T21:35:25.867Z,100380.49
2019-04-20T21:38:02.402Z,100382.23
2019-04-20T21:40:36.107Z,100384.91
2019-04-20T21:43:05.775Z,100377.39
2019-04-20T21:45:37.412Z,100383.13
2019-04-20T21:48:09.744Z,100386.02
2019-04-20T21:50:59.822Z,100380.23
2019-04-20T21:53:18.471Z,100382.67
2019-04-20T21:55:43.815Z,100383.39
2019-04-20T21:58:19.429Z,100378.22
2019-04-20T22:01:07.242Z,100380.41
2019-04-20T22:03:26.778Z,100376.77
2019-04-20T22:06:07.031Z,100377.52
2019-04-20T22:08:44.617Z,100376.83
2019-04-20T22:11:11.583Z,100382.52
2019-04-20T22:13:44.635Z,100381.47
2019-04-20T22:16:16.710Z,100382.05
2019-04-20T22:18:53.998Z,100379.73
2019-04-20T22:21:26.579Z,100385.76
2019-04-20T22:24:06.556Z,100378.80
2019-04-20T22:26:33.705Z,100377.55
2019-04-20T22:28:58.296Z,100379.56
2019-04-20T22:31:29.932Z,100381.84
2019-04-20T22:34:07.703Z,100385.45
2019-04-20T22:36:38.601Z,100388.40
2019-04-20T22:39:13.794Z,100380.86
2019-04-20T22:42:09.041Z,100383.17
2019-04-20T22:44:36.480Z,100379.30
2019-04-20T22:47:13.845Z,100383.34
2019-04-20T22:49:52.451Z,100382.75
2019-04-20T22:52:29.433Z,100381.70
2019-04-20T22:55:01.385Z,100376.05
2019-04-20T22:57:31.646Z,100378.63
2019-04-20T22:59:56.860Z,100370.45
2019-04-20T23:02:24.490Z,100373.59
2019-04-20T23:04:54.929Z,100369.64
2019-04-20T23:07:26.464Z,100369.64
2019-04-20T23:09:59.762Z,100365.17
2019-04-20T23:12:30.914Z,100363.20
2019-04-20T23:15:02.797Z,100368.00
2019-04-20T23:17:39.887Z,100360.25
2019-04-20T23:20:13.226Z,100361.12
2019-04-20T23:22:43.979Z,100367.58
2019-04-20T23:25:11.667Z,100364.39
2019-04-20T23:27:43.704Z,100364.81
2019-04-20T23:30:23.647Z,100357.44
2019-04-20T23:32:47.704Z,100362.98
2019-04-20T23:35:22.742Z,100362.98
2019-04-20T23:37:50.877Z,100356.30
2019-04-20T23:40:21.691Z,100353.98
2019-04-20T23:42:58.113Z,100352.62
2019-04-20T23:45:50.783Z,100350.80
2019-04-20T23:48:42.745Z,100349.98
2019-04-20T23:51:37.925Z,100351.69
2019-04-20T23:53:54.363Z,100350.81
2019-04-20T23:56:18.491Z,100347.73
2019-04-20T23:58:52.928Z,100349.25
